createdAt,value
2018-05-25T00:00:22.827Z,5.30
2018-05-25T00:01:22.822Z,5.00
2018-05-25T00:02:22.821Z,5.00
2018-05-25T00:03:22.812Z,5.70
2018-05-25T00:04:22.807Z,5.60
2018-05-25T00:05:22.802Z,5.80
2018-05-25T00:06:22.796Z,6.00
2018-05-25T00:07:22.791Z,5.80
2018-05-25T00:08:22.786Z,6.00
2018-05-25T00:09:22.983Z,5.80
2018-05-25T00:10:22.775Z,5.30
2018-05-25T00:11:22.771Z,5.50
2018-05-25T00:12:22.765Z,5.70
2018-05-25T00:13:22.761Z,5.40
2018-05-25T00:14:22.755Z,6.50
2018-05-25T00:15:22.750Z,6.10
2018-05-25T00:16:22.745Z,5.90
2018-05-25T00:17:22.740Z,6.40
2018-05-25T00:18:22.734Z,5.50
2018-05-25T00:19:22.936Z,5.70
2018-05-25T00:20:22.724Z,5.00
2018-05-25T00:21:22.720Z,5.70
2018-05-25T00:22:22.714Z,5.60
2018-05-25T00:23:22.709Z,5.60
2018-05-25T00:24:22.706Z,5.70
2018-05-25T00:25:22.699Z,5.10
2018-05-25T00:26:22.693Z,5.30
2018-05-25T00:27:22.689Z,5.60
2018-05-25T00:28:22.683Z,5.90
2018-05-25T00:29:22.678Z,5.50
2018-05-25T00:30:22.675Z,5.30
2018-05-25T00:31:22.667Z,5.50
2018-05-25T00:32:22.663Z,5.70
2018-05-25T00:33:22.659Z,6.00
2018-05-25T00:34:22.651Z,5.80
2018-05-25T00:35:22.645Z,5.40
2018-05-25T00:36:22.641Z,5.90
2018-05-25T00:37:22.635Z,6.50
2018-05-25T00:38:22.629Z,6.60
2018-05-25T00:39:22.624Z,5.70
2018-05-25T00:40:22.623Z,5.90
2018-05-25T00:41:22.613Z,6.00
2018-05-25T00:42:22.606Z,6.00
2018-05-25T00:43:22.602Z,5.20
2018-05-25T00:44:22.597Z,5.80
2018-05-25T00:45:22.591Z,5.80
2018-05-25T00:46:22.585Z,5.60
2018-05-25T00:47:22.580Z,5.60
2018-05-25T00:48:22.574Z,5.60
2018-05-25T00:49:22.569Z,6.10
2018-05-25T00:50:22.567Z,5.70
2018-05-25T00:51:22.557Z,5.30
2018-05-25T00:52:22.552Z,6.30
2018-05-25T00:53:22.547Z,5.50
2018-05-25T00:54:22.543Z,4.60
2018-05-25T00:55:22.537Z,5.40
2018-05-25T00:56:22.530Z,5.60
2018-05-25T00:57:22.526Z,5.00
2018-05-25T00:58:22.519Z,5.60
2018-05-25T00:59:22.514Z,5.40
2018-05-25T01:00:22.508Z,5.30
2018-05-25T01:01:22.505Z,6.20
2018-05-25T01:02:22.496Z,5.50
2018-05-25T01:03:22.492Z,5.90
2018-05-25T01:04:22.489Z,5.50
2018-05-25T01:05:22.481Z,5.80
2018-05-25T01:06:22.475Z,5.60
2018-05-25T01:07:22.469Z,5.40
2018-05-25T01:08:22.465Z,5.10
2018-05-25T01:09:22.459Z,5.40
2018-05-25T01:10:22.453Z,5.10
2018-05-25T01:11:22.450Z,6.10
2018-05-25T01:12:22.442Z,6.40
2018-05-25T01:13:22.438Z,6.30
2018-05-25T01:14:22.430Z,5.80
2018-05-25T01:15:22.428Z,5.50
2018-05-25T01:16:22.419Z,6.30
2018-05-25T01:17:22.414Z,6.20
2018-05-25T01:18:22.408Z,5.80
2018-05-25T01:19:22.402Z,5.20
2018-05-25T01:20:22.396Z,5.70
2018-05-25T01:21:22.393Z,5.40
2018-05-25T01:22:22.387Z,5.30
2018-05-25T01:23:22.380Z,5.60
2018-05-25T01:24:22.374Z,5.30
2018-05-25T01:25:22.371Z,5.70
2018-05-25T01:26:22.362Z,5.40
2018-05-25T01:27:22.357Z,5.90
2018-05-25T01:28:22.351Z,5.90
2018-05-25T01:29:22.346Z,5.50
2018-05-25T01:30:22.341Z,6.80
2018-05-25T01:31:22.333Z,6.00
2018-05-25T01:32:22.327Z,6.10
2018-05-25T01:33:22.322Z,6.00
2018-05-25T01:34:22.315Z,6.00
2018-05-25T01:35:22.310Z,5.40
2018-05-25T01:36:22.304Z,5.60
2018-05-25T01:37:22.301Z,6.00
2018-05-25T01:38:22.293Z,5.30
2018-05-25T01:39:22.286Z,6.30
2018-05-25T01:40:22.280Z,5.70
2018-05-25T01:41:22.276Z,5.70
2018-05-25T01:42:22.268Z,5.80
2018-05-25T01:43:22.265Z,5.90
2018-05-25T01:44:22.257Z,5.80
2018-05-25T01:45:22.252Z,5.10
2018-05-25T01:46:22.245Z,5.50
2018-05-25T01:47:22.239Z,5.90
2018-05-25T01:48:22.234Z,5.80
2018-05-25T01:49:22.228Z,4.90
2018-05-25T01:50:22.221Z,5.90
2018-05-25T01:51:22.216Z,6.30
2018-05-25T01:52:22.210Z,5.10
2018-05-25T01:53:22.205Z,5.70
2018-05-25T01:54:22.198Z,6.00
2018-05-25T01:55:22.192Z,6.10
2018-05-25T01:56:22.186Z,5.90
2018-05-25T01:57:22.186Z,5.30
2018-05-25T01:58:22.177Z,5.10
2018-05-25T01:59:22.169Z,6.20
2018-05-25T02:00:22.163Z,5.50
2018-05-25T02:01:22.158Z,5.60
2018-05-25T02:02:22.150Z,5.20
2018-05-25T02:03:22.145Z,5.80
2018-05-25T02:04:22.139Z,5.10
2018-05-25T02:05:22.138Z,6.00
2018-05-25T02:06:22.126Z,5.40
2018-05-25T02:07:22.121Z,6.50
2018-05-25T02:08:22.115Z,5.80
2018-05-25T02:09:22.110Z,5.80
2018-05-25T02:10:22.103Z,5.60
2018-05-25T02:11:22.097Z,5.00
2018-05-25T02:12:22.092Z,5.90
2018-05-25T02:13:22.086Z,6.00
2018-05-25T02:14:22.079Z,5.30
2018-05-25T02:15:22.078Z,5.90
2018-05-25T02:16:22.068Z,5.00
2018-05-25T02:17:22.062Z,5.90
2018-05-25T02:18:22.055Z,5.30
2018-05-25T02:19:22.050Z,5.50
2018-05-25T02:20:22.044Z,5.60
2018-05-25T02:21:22.038Z,5.10
2018-05-25T02:22:22.031Z,5.30
2018-05-25T02:23:22.026Z,5.10
2018-05-25T02:24:22.020Z,5.20
2018-05-25T02:25:22.015Z,5.20
2018-05-25T02:26:22.012Z,4.50
2018-05-25T02:27:22.002Z,5.50
2018-05-25T02:28:21.996Z,5.10
2018-05-25T02:29:21.990Z,5.50
2018-05-25T02:30:21.984Z,5.00
2018-05-25T02:31:21.978Z,5.80
2018-05-25T02:32:21.982Z,4.90
2018-05-25T02:33:21.967Z,6.00
2018-05-25T02:34:21.960Z,5.60
2018-05-25T02:35:21.955Z,6.20
2018-05-25T02:36:21.949Z,5.90
2018-05-25T02:37:21.947Z,5.80
2018-05-25T02:38:21.936Z,5.70
2018-05-25T02:39:21.930Z,5.60
2018-05-25T02:40:21.925Z,6.20
2018-05-25T02:41:21.919Z,6.20
2018-05-25T02:42:21.912Z,5.70
2018-05-25T02:43:21.906Z,6.50
2018-05-25T02:44:21.900Z,5.60
2018-05-25T02:45:21.894Z,5.90
2018-05-25T02:46:21.886Z,6.40
2018-05-25T02:47:21.885Z,6.00
2018-05-25T02:48:21.875Z,6.60
2018-05-25T02:49:21.870Z,5.70
2018-05-25T02:50:21.862Z,5.70
2018-05-25T02:51:21.864Z,7.10
2018-05-25T02:52:21.852Z,5.60
2018-05-25T02:53:21.844Z,5.90
2018-05-25T02:54:21.837Z,5.90
2018-05-25T02:55:21.832Z,6.00
2018-05-25T02:56:21.826Z,5.60
2018-05-25T02:57:21.899Z,5.90
2018-05-25T02:58:21.814Z,5.60
2018-05-25T02:59:21.807Z,5.20
2018-05-25T03:00:21.801Z,5.90
2018-05-25T03:01:21.796Z,5.70
2018-05-25T03:02:21.789Z,5.60
2018-05-25T03:03:21.783Z,6.70
2018-05-25T03:04:21.777Z,5.40
2018-05-25T03:05:21.771Z,5.40
2018-05-25T03:06:21.774Z,5.30
2018-05-25T03:07:21.758Z,5.30
2018-05-25T03:08:21.766Z,5.70
2018-05-25T03:09:21.751Z,5.20
2018-05-25T03:10:21.741Z,4.60
2018-05-25T03:11:21.734Z,5.40
2018-05-25T03:12:21.728Z,5.30
2018-05-25T03:13:21.725Z,4.80
2018-05-25T03:14:21.715Z,5.40
2018-05-25T03:15:21.709Z,6.10
2018-05-25T03:16:21.703Z,6.40
2018-05-25T03:17:21.696Z,5.30
2018-05-25T03:18:21.689Z,5.30
2018-05-25T03:19:21.683Z,5.30
2018-05-25T03:20:21.688Z,5.30
2018-05-25T03:21:21.675Z,5.40
2018-05-25T03:22:21.664Z,5.90
2018-05-25T03:23:21.658Z,5.50
2018-05-25T03:24:21.652Z,5.80
2018-05-25T03:25:21.648Z,4.80
2018-05-25T03:26:21.639Z,5.70
2018-05-25T03:27:21.633Z,4.90
2018-05-25T03:28:21.627Z,5.40
2018-05-25T03:29:21.621Z,5.20
2018-05-25T03:30:21.617Z,6.20
2018-05-25T03:31:21.611Z,4.80
2018-05-25T03:32:21.603Z,5.30
2018-05-25T03:33:21.596Z,5.50
2018-05-25T03:34:21.594Z,6.00
2018-05-25T03:35:21.583Z,4.80
2018-05-25T03:36:21.578Z,5.30
2018-05-25T03:37:21.571Z,5.30
2018-05-25T03:38:21.772Z,5.10
2018-05-25T03:39:21.558Z,5.70
2018-05-25T03:40:21.555Z,5.30
2018-05-25T03:41:21.546Z,5.80
2018-05-25T03:42:21.539Z,5.80
2018-05-25T03:43:21.533Z,5.50
2018-05-25T03:44:21.527Z,5.50
2018-05-25T03:45:21.527Z,6.00
2018-05-25T03:46:21.514Z,5.10
2018-05-25T03:47:21.512Z,5.20
2018-05-25T03:48:21.502Z,5.70
2018-05-25T03:49:21.498Z,5.40
2018-05-25T03:50:21.492Z,6.50
2018-05-25T03:51:21.483Z,5.90
2018-05-25T03:52:21.479Z,5.40
2018-05-25T03:53:21.473Z,5.40
2018-05-25T03:54:21.465Z,5.20
2018-05-25T03:55:21.458Z,5.90
2018-05-25T03:56:21.453Z,5.40
2018-05-25T03:57:21.450Z,5.50
2018-05-25T03:58:21.440Z,5.90
2018-05-25T03:59:21.437Z,5.80
2018-05-25T04:00:21.428Z,5.30
2018-05-25T04:01:21.627Z,4.40
2018-05-25T04:02:21.417Z,4.60
2018-05-25T04:03:21.409Z,5.60
2018-05-25T04:04:21.409Z,5.40
2018-05-25T04:05:21.399Z,5.20
2018-05-25T04:06:21.390Z,5.10
2018-05-25T04:07:21.384Z,5.40
2018-05-25T04:08:21.377Z,5.40
2018-05-25T04:09:21.373Z,4.90
2018-05-25T04:10:21.367Z,5.30
2018-05-25T04:11:21.358Z,5.90
2018-05-25T04:12:21.352Z,4.70
2018-05-25T04:13:21.350Z,4.50
2018-05-25T04:14:21.396Z,5.60
2018-05-25T04:15:21.333Z,6.00
2018-05-25T04:16:21.329Z,5.70
2018-05-25T04:17:21.321Z,5.20
2018-05-25T04:18:21.313Z,5.50
2018-05-25T04:19:21.308Z,5.40
2018-05-25T04:20:21.307Z,5.60
2018-05-25T04:21:21.295Z,5.50
2018-05-25T04:22:21.289Z,5.70
2018-05-25T04:23:21.282Z,5.30
2018-05-25T04:24:21.276Z,5.70
2018-05-25T04:25:21.272Z,5.60
2018-05-25T04:26:21.263Z,5.90
2018-05-25T04:27:21.257Z,5.80
2018-05-25T04:28:21.252Z,6.90
2018-05-25T04:29:21.245Z,6.10
2018-05-25T04:30:21.238Z,5.80
2018-05-25T04:31:21.232Z,6.70
2018-05-25T04:32:21.226Z,6.10
2018-05-25T04:33:21.223Z,5.30
2018-05-25T04:34:21.217Z,6.30
2018-05-25T04:35:21.210Z,5.30
2018-05-25T04:36:21.204Z,5.80
2018-05-25T04:37:21.195Z,6.40
2018-05-25T04:38:21.195Z,6.00
2018-05-25T04:39:21.182Z,5.90
2018-05-25T04:40:21.178Z,5.30
2018-05-25T04:41:21.170Z,4.60
2018-05-25T04:42:21.163Z,5.40
2018-05-25T04:43:21.213Z,5.00
2018-05-25T04:44:21.154Z,5.50
2018-05-25T04:45:21.149Z,5.20
2018-05-25T04:46:21.141Z,5.20
2018-05-25T04:47:21.133Z,5.30
2018-05-25T04:48:21.535Z,5.30
2018-05-25T04:49:21.129Z,5.50
2018-05-25T04:50:21.114Z,5.30
2018-05-25T04:51:21.108Z,4.90
2018-05-25T04:52:21.105Z,6.00
2018-05-25T04:53:21.097Z,5.60
2018-05-25T04:54:21.093Z,5.30
2018-05-25T04:55:21.084Z,5.40
2018-05-25T04:56:21.078Z,5.50
2018-05-25T04:57:21.073Z,5.90
2018-05-25T04:58:21.066Z,5.50
2018-05-25T04:59:21.061Z,5.70
2018-05-25T05:00:21.054Z,5.40
2018-05-25T05:01:21.052Z,5.30
2018-05-25T05:02:21.041Z,5.30
2018-05-25T05:03:21.036Z,4.90
2018-05-25T05:04:21.038Z,5.40
2018-05-25T05:05:21.024Z,5.20
2018-05-25T05:06:21.018Z,5.30
2018-05-25T05:07:21.012Z,5.50
2018-05-25T05:08:21.006Z,4.90
2018-05-25T05:09:21.000Z,5.50
2018-05-25T05:10:20.993Z,5.10
2018-05-25T05:11:20.989Z,4.90
2018-05-25T05:12:20.983Z,4.50
2018-05-25T05:13:20.977Z,4.50
2018-05-25T05:14:20.976Z,5.50
2018-05-25T05:15:20.966Z,4.50
2018-05-25T05:16:20.960Z,4.50
2018-05-25T05:17:20.957Z,4.60
2018-05-25T05:18:20.950Z,5.40
2018-05-25T05:19:20.943Z,4.80
2018-05-25T05:20:20.938Z,4.70
2018-05-25T05:21:20.938Z,4.50
2018-05-25T05:22:20.928Z,5.00
2018-05-25T05:23:20.922Z,3.90
2018-05-25T05:24:20.917Z,4.70
2018-05-25T05:25:20.913Z,4.60
2018-05-25T05:26:20.907Z,4.10
2018-05-25T05:27:20.901Z,4.30
2018-05-25T05:28:20.900Z,4.90
2018-05-25T05:29:20.891Z,4.30
2018-05-25T05:30:20.885Z,4.70
2018-05-25T05:31:21.082Z,4.50
2018-05-25T05:32:20.875Z,4.40
2018-05-25T05:33:20.875Z,4.50
2018-05-25T05:34:20.869Z,4.20
2018-05-25T05:35:20.859Z,4.30
2018-05-25T05:36:20.854Z,5.00
2018-05-25T05:37:21.052Z,4.10
2018-05-25T05:38:20.843Z,5.20
2018-05-25T05:39:20.840Z,5.00
2018-05-25T05:40:20.834Z,5.00
2018-05-25T05:41:20.829Z,4.50
2018-05-25T05:42:20.826Z,5.00
2018-05-25T05:43:20.819Z,4.90
2018-05-25T05:44:20.814Z,4.50
2018-05-25T05:45:20.810Z,4.20
2018-05-25T05:46:20.805Z,4.60
2018-05-25T05:47:20.800Z,4.60
2018-05-25T05:48:20.797Z,4.30
2018-05-25T05:49:20.791Z,4.80
2018-05-25T05:50:20.991Z,4.70
2018-05-25T05:52:20.979Z,5.00
2018-05-25T05:53:20.776Z,3.80
2018-05-25T05:54:20.773Z,4.90
2018-05-25T05:55:20.763Z,3.70
2018-05-25T05:56:20.759Z,4.40
2018-05-25T05:57:20.758Z,4.30
2018-05-25T05:58:20.750Z,4.50
2018-05-25T05:59:20.746Z,4.00
2018-05-25T06:00:20.746Z,4.50
2018-05-25T06:01:20.738Z,4.20
2018-05-25T06:02:20.733Z,4.20
2018-05-25T06:03:20.730Z,4.10
2018-05-25T06:04:20.745Z,4.80
2018-05-25T06:05:20.722Z,4.60
2018-05-25T06:06:20.721Z,4.60
2018-05-25T06:07:20.714Z,4.40
2018-05-25T06:08:20.713Z,4.20
2018-05-25T06:09:20.909Z,4.40
2018-05-25T06:10:20.702Z,4.50
2018-05-25T06:11:20.703Z,4.70
2018-05-25T06:12:20.702Z,4.40
2018-05-25T06:13:20.695Z,4.50
2018-05-25T06:14:20.690Z,3.90
2018-05-25T06:15:20.684Z,3.90
2018-05-25T06:16:20.681Z,4.80
2018-05-25T06:17:20.678Z,4.30
2018-05-25T06:18:20.673Z,4.40
2018-05-25T06:19:20.679Z,4.10
2018-05-25T06:20:20.667Z,3.90
2018-05-25T06:21:20.664Z,4.00
2018-05-25T06:22:20.659Z,3.80
2018-05-25T06:23:20.656Z,3.70
2018-05-25T06:24:20.655Z,3.80
2018-05-25T06:25:20.661Z,4.20
2018-05-25T06:26:20.647Z,4.00
2018-05-25T06:27:20.648Z,3.70
2018-05-25T06:29:20.638Z,3.90
2018-05-25T06:30:20.634Z,3.40
2018-05-25T06:31:20.632Z,3.60
2018-05-25T06:32:20.632Z,3.50
2018-05-25T06:33:20.632Z,4.10
2018-05-25T06:34:20.623Z,3.90
2018-05-25T06:35:20.621Z,3.50
2018-05-25T06:36:20.622Z,4.00
2018-05-25T06:37:20.615Z,3.70
2018-05-25T06:38:20.612Z,4.20
2018-05-25T06:39:20.608Z,3.80
2018-05-25T06:40:20.607Z,3.80
2018-05-25T06:41:20.608Z,3.60
2018-05-25T06:42:20.601Z,3.40
2018-05-25T06:43:20.599Z,3.60
2018-05-25T06:44:20.637Z,3.00
2018-05-25T06:45:20.594Z,4.10
2018-05-25T06:46:20.593Z,3.70
2018-05-25T06:47:20.791Z,3.20
2018-05-25T06:48:20.592Z,3.90
2018-05-25T06:49:20.586Z,3.10
2018-05-25T06:50:20.583Z,3.80
2018-05-25T06:51:20.581Z,3.70
2018-05-25T06:52:20.579Z,3.50
2018-05-25T06:53:20.578Z,3.20
2018-05-25T06:54:20.575Z,3.30
2018-05-25T06:55:20.573Z,3.00
2018-05-25T06:56:20.572Z,3.50
2018-05-25T06:57:20.572Z,3.40
2018-05-25T06:58:20.568Z,3.30
2018-05-25T06:59:20.569Z,3.40
2018-05-25T07:00:20.565Z,3.20
2018-05-25T07:01:20.570Z,3.30
2018-05-25T07:02:20.562Z,3.00
2018-05-25T07:03:20.562Z,2.90
2018-05-25T07:04:20.562Z,3.50
2018-05-25T07:05:20.565Z,3.10
2018-05-25T07:06:20.563Z,3.10
2018-05-25T07:07:20.565Z,3.20
2018-05-25T07:08:20.564Z,2.70
2018-05-25T07:09:20.567Z,4.00
2018-05-25T07:10:20.765Z,3.60
2018-05-25T07:11:20.567Z,2.90
2018-05-25T07:12:20.567Z,3.50
2018-05-25T07:13:20.571Z,3.30
2018-05-25T07:14:20.572Z,2.90
2018-05-25T07:15:20.575Z,3.30
2018-05-25T07:16:20.579Z,3.10
2018-05-25T07:17:20.588Z,3.10
2018-05-25T07:18:20.588Z,3.10
2018-05-25T07:19:20.597Z,3.20
2018-05-25T07:20:20.598Z,3.20
2018-05-25T07:21:20.612Z,2.70
2018-05-25T07:22:20.609Z,2.70
2018-05-25T07:23:20.618Z,3.20
2018-05-25T07:24:20.629Z,2.50
2018-05-25T07:25:20.637Z,2.90
2018-05-25T07:26:20.636Z,2.90
2018-05-25T07:27:20.650Z,3.00
2018-05-25T07:28:20.651Z,2.70
2018-05-25T07:29:20.666Z,2.70
2018-05-25T07:30:20.671Z,2.80
2018-05-25T07:31:20.678Z,2.90
2018-05-25T07:32:20.683Z,3.40
2018-05-25T07:33:20.700Z,2.70
2018-05-25T07:34:20.703Z,3.00
2018-05-25T07:35:20.709Z,2.80
2018-05-25T07:36:20.719Z,3.10
2018-05-25T07:37:20.766Z,2.60
2018-05-25T07:38:20.737Z,2.80
2018-05-25T07:39:20.781Z,2.90
2018-05-25T07:40:20.757Z,2.60
2018-05-25T07:41:20.770Z,2.80
2018-05-25T07:42:20.781Z,2.60
2018-05-25T07:43:20.788Z,3.30
2018-05-25T07:44:20.796Z,2.90
2018-05-25T07:45:20.806Z,2.90
2018-05-25T07:46:20.816Z,3.20
2018-05-25T07:47:20.826Z,2.90
2018-05-25T07:48:20.837Z,2.90
2018-05-25T07:49:20.851Z,3.10
2018-05-25T07:50:20.857Z,2.80
2018-05-25T07:51:20.867Z,2.90
2018-05-25T07:53:20.889Z,3.20
2018-05-25T07:54:20.933Z,3.50
2018-05-25T07:55:20.910Z,2.80
2018-05-25T07:56:20.922Z,2.90
2018-05-25T07:57:20.934Z,3.20
2018-05-25T07:58:20.943Z,3.00
2018-05-25T07:59:20.956Z,3.40
2018-05-25T08:00:21.028Z,2.90
2018-05-25T08:01:20.976Z,2.70
2018-05-25T08:02:21.195Z,3.40
2018-05-25T08:03:21.205Z,3.20
2018-05-25T08:04:21.010Z,2.70
2018-05-25T08:05:21.022Z,2.70
2018-05-25T08:06:21.065Z,3.10
2018-05-25T08:07:21.043Z,3.10
2018-05-25T08:08:21.060Z,3.00
2018-05-25T08:09:21.070Z,2.90
2018-05-25T08:10:21.085Z,3.00
2018-05-25T08:11:21.091Z,3.30
2018-05-25T08:12:21.108Z,3.10
2018-05-25T08:13:21.116Z,3.10
2018-05-25T08:14:21.130Z,3.00
2018-05-25T08:15:21.140Z,3.60
2018-05-25T08:16:21.152Z,2.50
2018-05-25T08:17:21.171Z,2.80
2018-05-25T08:18:21.380Z,3.90
2018-05-25T08:19:21.196Z,3.60
2018-05-25T08:20:21.205Z,2.70
2018-05-25T08:21:21.218Z,2.80
2018-05-25T08:22:21.232Z,2.40
2018-05-25T08:23:21.247Z,2.80
2018-05-25T08:24:21.262Z,2.80
2018-05-25T08:25:21.272Z,2.90
2018-05-25T08:26:21.283Z,2.80
2018-05-25T08:27:21.297Z,2.70
2018-05-25T08:28:21.316Z,3.00
2018-05-25T08:29:21.325Z,2.70
2018-05-25T08:30:21.436Z,3.00
2018-05-25T08:31:21.352Z,3.20
2018-05-25T08:32:21.368Z,3.10
2018-05-25T08:33:21.376Z,2.70
2018-05-25T08:34:21.389Z,3.10
2018-05-25T08:35:21.406Z,3.00
2018-05-25T08:36:21.416Z,3.00
2018-05-25T08:37:21.434Z,2.70
2018-05-25T08:38:21.447Z,2.90
2018-05-25T08:39:21.457Z,2.60
2018-05-25T08:40:21.472Z,2.60
2018-05-25T08:41:21.488Z,2.90
2018-05-25T08:42:21.498Z,2.60
2018-05-25T08:43:21.563Z,2.60
2018-05-25T08:44:21.528Z,3.10
2018-05-25T08:45:21.543Z,3.30
2018-05-25T08:46:21.636Z,3.20
2018-05-25T08:47:21.575Z,3.10
2018-05-25T08:48:21.585Z,2.50
2018-05-25T08:49:21.613Z,2.40
2018-05-25T08:50:21.619Z,2.40
2018-05-25T08:51:21.626Z,2.60
2018-05-25T08:52:21.641Z,2.70
2018-05-25T08:53:21.653Z,2.60
2018-05-25T08:54:21.666Z,2.60
2018-05-25T08:55:21.682Z,2.40
2018-05-25T08:56:21.697Z,2.70
2018-05-25T08:57:21.715Z,2.60
2018-05-25T08:58:21.727Z,2.80
2018-05-25T08:59:21.738Z,2.40
2018-05-25T09:00:21.753Z,2.20
2018-05-25T09:01:21.790Z,2.50
2018-05-25T09:02:21.781Z,2.80
2018-05-25T09:03:21.797Z,3.10
2018-05-25T09:04:21.815Z,3.00
2018-05-25T09:05:21.827Z,2.90
2018-05-25T09:06:21.844Z,2.80
2018-05-25T09:07:21.857Z,3.40
2018-05-25T09:08:21.873Z,3.20
2018-05-25T09:09:21.890Z,2.90
2018-05-25T09:10:21.905Z,2.90
2018-05-25T09:11:21.921Z,3.20
2018-05-25T09:12:21.980Z,3.20
2018-05-25T09:13:21.955Z,3.10
2018-05-25T09:14:21.971Z,3.50
2018-05-25T09:15:21.988Z,3.50
2018-05-25T09:16:22.008Z,3.40
2018-05-25T09:17:22.022Z,3.70
2018-05-25T09:18:22.039Z,3.40
2018-05-25T09:19:22.057Z,3.90
2018-05-25T09:20:22.077Z,3.40
2018-05-25T09:21:22.099Z,3.30
2018-05-25T09:22:22.116Z,3.60
2018-05-25T09:23:22.329Z,3.70
2018-05-25T09:24:22.146Z,3.80
2018-05-25T09:25:22.164Z,3.90
2018-05-25T09:26:22.185Z,4.00
2018-05-25T09:27:22.199Z,4.20
2018-05-25T09:28:22.218Z,4.10
2018-05-25T09:29:22.237Z,4.00
2018-05-25T09:30:22.255Z,4.10
2018-05-25T09:31:22.273Z,4.20
2018-05-25T09:32:22.291Z,4.40
2018-05-25T09:33:22.313Z,4.20
2018-05-25T09:34:22.330Z,4.20
2018-05-25T09:35:22.351Z,4.00
2018-05-25T09:36:22.381Z,3.70
2018-05-25T09:37:22.382Z,3.50
2018-05-25T09:38:22.399Z,3.30
2018-05-25T09:39:22.415Z,3.20
2018-05-25T09:40:22.433Z,2.70
2018-05-25T09:41:22.448Z,2.40
2018-05-25T09:42:22.468Z,2.80
2018-05-25T09:43:22.512Z,2.70
2018-05-25T09:44:22.488Z,2.90
2018-05-25T09:45:22.499Z,2.80
2018-05-25T09:46:22.511Z,2.80
2018-05-25T09:47:22.526Z,2.60
2018-05-25T09:48:22.543Z,2.70
2018-05-25T09:49:22.557Z,3.10
2018-05-25T09:50:22.571Z,2.50
2018-05-25T09:51:22.584Z,3.00
2018-05-25T09:52:22.598Z,2.60
2018-05-25T09:53:22.614Z,2.80
2018-05-25T09:54:22.629Z,3.20
2018-05-25T09:55:22.645Z,3.10
2018-05-25T09:56:22.862Z,2.90
2018-05-25T09:57:22.677Z,2.80
2018-05-25T09:58:22.697Z,2.80
2018-05-25T09:59:22.706Z,2.90
2018-05-25T10:00:22.715Z,2.60
2018-05-25T10:01:22.730Z,2.60
2018-05-25T10:02:22.742Z,2.70
2018-05-25T10:03:22.751Z,2.40
2018-05-25T10:04:22.760Z,2.30
2018-05-25T10:05:22.776Z,2.40
2018-05-25T10:06:22.784Z,1.80
2018-05-25T10:07:22.793Z,2.60
2018-05-25T10:08:22.805Z,2.30
2018-05-25T10:09:22.809Z,2.00
2018-05-25T10:10:22.817Z,2.00
2018-05-25T10:11:22.826Z,2.10
2018-05-25T10:12:22.839Z,1.90
2018-05-25T10:13:22.854Z,1.80
2018-05-25T10:14:22.853Z,1.80
2018-05-25T10:15:22.863Z,1.80
2018-05-25T10:16:22.874Z,2.10
2018-05-25T10:17:22.877Z,1.80
2018-05-25T10:18:22.890Z,1.90
2018-05-25T10:19:22.897Z,2.00
2018-05-25T10:20:22.908Z,2.20
2018-05-25T10:21:22.916Z,2.00
2018-05-25T10:22:22.927Z,2.30
2018-05-25T10:23:22.942Z,2.50
2018-05-25T10:24:22.955Z,2.50
2018-05-25T10:25:22.963Z,2.10
2018-05-25T10:26:22.975Z,2.20
2018-05-25T10:27:22.991Z,2.10
2018-05-25T10:28:23.010Z,2.60
2018-05-25T10:29:23.019Z,2.20
2018-05-25T10:30:23.030Z,2.10
2018-05-25T10:31:23.052Z,2.50
2018-05-25T10:32:23.059Z,2.40
2018-05-25T10:33:23.074Z,2.50
2018-05-25T10:34:23.088Z,2.00
2018-05-25T10:35:23.107Z,2.30
2018-05-25T10:36:23.120Z,1.90
2018-05-25T10:37:23.135Z,1.90
2018-05-25T10:38:23.148Z,2.30
2018-05-25T10:39:23.158Z,2.30
2018-05-25T10:40:23.175Z,2.30
2018-05-25T10:41:23.390Z,2.60
2018-05-25T10:42:23.207Z,2.40
2018-05-25T10:43:23.226Z,2.30
2018-05-25T10:44:23.239Z,2.30
2018-05-25T10:45:23.253Z,2.50
2018-05-25T10:46:23.465Z,2.50
2018-05-25T10:47:23.284Z,2.50
2018-05-25T10:48:23.298Z,2.70
2018-05-25T10:49:23.309Z,2.60
2018-05-25T10:50:23.528Z,2.90
2018-05-25T10:51:23.341Z,3.40
2018-05-25T10:52:23.358Z,3.00
2018-05-25T10:53:23.375Z,3.10
2018-05-25T10:54:23.388Z,2.80
2018-05-25T10:55:23.404Z,3.00
2018-05-25T10:56:23.425Z,2.90
2018-05-25T10:57:23.437Z,3.00
2018-05-25T10:58:23.452Z,2.50
2018-05-25T10:59:23.472Z,3.10
2018-05-25T11:00:23.492Z,3.10
2018-05-25T11:01:23.512Z,2.70
2018-05-25T11:03:23.533Z,2.80
2018-05-25T11:04:23.550Z,2.50
2018-05-25T11:05:23.571Z,2.50
2018-05-25T11:06:23.579Z,2.40
2018-05-25T11:07:23.598Z,2.30
2018-05-25T11:08:23.615Z,2.70
2018-05-25T11:09:23.628Z,3.10
2018-05-25T11:10:23.641Z,3.10
2018-05-25T11:11:23.663Z,2.60
2018-05-25T11:12:23.676Z,2.60
2018-05-25T11:13:23.691Z,2.70
2018-05-25T11:14:23.702Z,2.40
2018-05-25T11:15:23.717Z,2.10
2018-05-25T11:16:23.735Z,2.50
2018-05-25T11:17:23.747Z,2.20
2018-05-25T11:18:23.762Z,2.40
2018-05-25T11:19:23.776Z,2.40
2018-05-25T11:20:23.797Z,2.50
2018-05-25T11:21:23.809Z,2.10
2018-05-25T11:22:23.820Z,2.30
2018-05-25T11:23:23.835Z,3.20
2018-05-25T11:24:23.855Z,2.40
2018-05-25T11:25:23.864Z,2.50
2018-05-25T11:26:23.878Z,2.50
2018-05-25T11:27:23.897Z,2.50
2018-05-25T11:28:23.909Z,2.30
2018-05-25T11:29:23.923Z,2.10
2018-05-25T11:30:23.947Z,2.20
2018-05-25T11:31:23.951Z,2.30
2018-05-25T11:32:23.965Z,2.20
2018-05-25T11:33:23.984Z,2.30
2018-05-25T11:34:24.002Z,2.20
2018-05-25T11:35:24.006Z,1.80
2018-05-25T11:36:24.019Z,2.10
2018-05-25T11:37:24.034Z,2.20
2018-05-25T11:38:24.052Z,2.20
2018-05-25T11:39:24.060Z,2.40
2018-05-25T11:40:24.078Z,1.80
2018-05-25T11:41:24.087Z,2.00
2018-05-25T11:42:24.100Z,1.90
2018-05-25T11:43:24.113Z,2.20
2018-05-25T11:44:24.127Z,2.10
2018-05-25T11:45:24.141Z,2.40
2018-05-25T11:46:24.153Z,1.90
2018-05-25T11:47:24.171Z,2.10
2018-05-25T11:48:24.181Z,1.90
2018-05-25T11:49:24.194Z,1.90
2018-05-25T11:50:24.203Z,1.80
2018-05-25T11:51:24.216Z,1.90
2018-05-25T11:52:24.232Z,2.20
2018-05-25T11:53:24.243Z,2.00
2018-05-25T11:54:24.256Z,2.00
2018-05-25T11:55:24.266Z,1.90
2018-05-25T11:56:24.282Z,2.00
2018-05-25T11:57:24.289Z,1.80
2018-05-25T11:58:24.308Z,1.80
2018-05-25T11:59:24.312Z,1.80
2018-05-25T12:00:24.327Z,1.60
2018-05-25T12:01:24.332Z,1.90
2018-05-25T12:02:24.344Z,1.80
2018-05-25T12:03:24.351Z,2.00
2018-05-25T12:04:24.361Z,2.00
2018-05-25T12:05:24.370Z,1.80
2018-05-25T12:06:24.385Z,1.70
2018-05-25T12:07:24.390Z,1.60
2018-05-25T12:08:24.401Z,1.70
2018-05-25T12:09:24.406Z,1.70
2018-05-25T12:10:24.414Z,1.60
2018-05-25T12:11:24.425Z,1.60
2018-05-25T12:12:24.431Z,1.50
2018-05-25T12:13:24.446Z,1.70
2018-05-25T12:14:24.450Z,2.00
2018-05-25T12:15:24.455Z,1.50
2018-05-25T12:16:24.505Z,1.90
2018-05-25T12:17:24.477Z,1.50
2018-05-25T12:18:24.482Z,1.90
2018-05-25T12:19:24.488Z,1.60
2018-05-25T12:20:24.497Z,1.60
2018-05-25T12:21:24.507Z,1.80
2018-05-25T12:22:24.516Z,1.50
2018-05-25T12:23:24.532Z,1.70
2018-05-25T12:24:24.536Z,1.50
2018-05-25T12:25:24.548Z,2.10
2018-05-25T12:26:24.558Z,1.80
2018-05-25T12:27:24.568Z,1.90
2018-05-25T12:28:24.577Z,1.60
2018-05-25T12:29:24.585Z,1.70
2018-05-25T12:30:24.600Z,2.00
2018-05-25T12:31:24.606Z,1.70
2018-05-25T12:32:24.618Z,1.70
2018-05-25T12:33:24.629Z,1.50
2018-05-25T12:34:24.639Z,2.00
2018-05-25T12:35:24.656Z,1.70
2018-05-25T12:36:24.667Z,1.70
2018-05-25T12:37:24.679Z,1.90
2018-05-25T12:38:24.692Z,2.00
2018-05-25T12:39:24.710Z,1.90
2018-05-25T12:40:24.712Z,1.80
2018-05-25T12:41:24.725Z,1.70
2018-05-25T12:42:24.741Z,1.80
2018-05-25T12:43:24.753Z,2.20
2018-05-25T12:44:24.771Z,1.50
2018-05-25T12:45:24.782Z,2.10
2018-05-25T12:46:24.790Z,2.00
2018-05-25T12:47:24.807Z,2.10
2018-05-25T12:48:24.819Z,2.00
2018-05-25T12:49:24.832Z,1.70
2018-05-25T12:50:24.846Z,2.00
2018-05-25T12:51:24.861Z,2.30
2018-05-25T12:52:24.877Z,2.00
2018-05-25T12:53:24.892Z,2.20
2018-05-25T12:54:24.923Z,2.10
2018-05-25T12:55:24.918Z,1.90
2018-05-25T12:56:24.932Z,2.00
2018-05-25T12:57:24.951Z,1.90
2018-05-25T12:58:24.961Z,2.20
2018-05-25T12:59:24.975Z,2.20
2018-05-25T13:00:24.993Z,2.30
2018-05-25T13:01:25.006Z,2.40
2018-05-25T13:02:25.029Z,2.20
2018-05-25T13:03:25.040Z,1.70
2018-05-25T13:04:25.070Z,1.80
2018-05-25T13:05:25.069Z,2.30
2018-05-25T13:06:25.080Z,2.10
2018-05-25T13:07:25.095Z,2.00
2018-05-25T13:08:25.112Z,2.20
2018-05-25T13:09:25.129Z,2.00
2018-05-25T13:10:25.140Z,2.30
2018-05-25T13:11:25.156Z,2.50
2018-05-25T13:12:25.171Z,2.00
2018-05-25T13:13:25.189Z,2.30
2018-05-25T13:14:25.208Z,2.10
2018-05-25T13:15:25.222Z,2.40
2018-05-25T13:16:25.233Z,2.30
2018-05-25T13:17:25.251Z,2.10
2018-05-25T13:18:25.269Z,1.90
2018-05-25T13:19:25.481Z,1.80
2018-05-25T13:20:25.290Z,2.00
2018-05-25T13:21:25.303Z,1.90
2018-05-25T13:22:25.320Z,1.70